sensor_id;sensor_type;location;lat;lon;timestamp;P1;durP1;ratioP1;P2;durP2;ratioP2
55210;SDS011;41082;52.822;6.666;2024-02-15T00:01:30;36.60;;;18.40;;
55210;SDS011;41082;52.822;6.666;2024-02-15T00:03:56;39.85;;;19.45;;
55210;SDS011;41082;52.822;6.666;2024-02-15T00:06:22;35.20;;;18.25;;
55210;SDS011;41082;52.822;6.666;2024-02-15T00:08:48;34.67;;;17.55;;
55210;SDS011;41082;52.822;6.666;2024-02-15T00:11:15;31.33;;;17.33;;
55210;SDS011;41082;52.822;6.666;2024-02-15T00:13:40;28.00;;;16.60;;
55210;SDS011;41082;52.822;6.666;2024-02-15T00:16:06;27.73;;;16.23;;
55210;SDS011;41082;52.822;6.666;2024-02-15T00:18:32;29.85;;;16.70;;
55210;SDS011;41082;52.822;6.666;2024-02-15T00:20:57;27.90;;;15.27;;
55210;SDS011;41082;52.822;6.666;2024-02-15T00:23:25;29.42;;;15.77;;
55210;SDS011;41082;52.822;6.666;2024-02-15T00:25:50;26.13;;;14.93;;
55210;SDS011;41082;52.822;6.666;2024-02-15T00:28:16;28.60;;;14.82;;
55210;SDS011;41082;52.822;6.666;2024-02-15T00:30:42;25.67;;;14.23;;
55210;SDS011;41082;52.822;6.666;2024-02-15T00:33:07;24.92;;;13.73;;
55210;SDS011;41082;52.822;6.666;2024-02-15T00:35:33;27.52;;;14.35;;
55210;SDS011;41082;52.822;6.666;2024-02-15T00:37:59;29.65;;;14.05;;
55210;SDS011;41082;52.822;6.666;2024-02-15T00:40:24;21.08;;;12.95;;
55210;SDS011;41082;52.822;6.666;2024-02-15T00:42:50;22.95;;;13.05;;
55210;SDS011;41082;52.822;6.666;2024-02-15T00:45:15;23.70;;;13.57;;
55210;SDS011;41082;52.822;6.666;2024-02-15T00:47:41;26.35;;;14.05;;
55210;SDS011;41082;52.822;6.666;2024-02-15T00:50:08;28.70;;;14.02;;
55210;SDS011;41082;52.822;6.666;2024-02-15T00:52:34;24.73;;;14.13;;
55210;SDS011;41082;52.822;6.666;2024-02-15T00:55:00;23.17;;;13.82;;
55210;SDS011;41082;52.822;6.666;2024-02-15T00:57:26;30.70;;;14.75;;
55210;SDS011;41082;52.822;6.666;2024-02-15T00:59:51;28.65;;;14.55;;
55210;SDS011;41082;52.822;6.666;2024-02-15T01:02:17;32.10;;;15.30;;
55210;SDS011;41082;52.822;6.666;2024-02-15T01:04:43;31.40;;;15.70;;
55210;SDS011;41082;52.822;6.666;2024-02-15T01:07:10;33.65;;;15.65;;
55210;SDS011;41082;52.822;6.666;2024-02-15T01:09:36;32.50;;;15.80;;
55210;SDS011;41082;52.822;6.666;2024-02-15T01:12:01;31.33;;;15.50;;
55210;SDS011;41082;52.822;6.666;2024-02-15T01:14:30;36.00;;;16.55;;
55210;SDS011;41082;52.822;6.666;2024-02-15T01:16:56;34.03;;;16.38;;
55210;SDS011;41082;52.822;6.666;2024-02-15T01:19:22;36.42;;;16.42;;
55210;SDS011;41082;52.822;6.666;2024-02-15T01:21:48;41.13;;;17.88;;
55210;SDS011;41082;52.822;6.666;2024-02-15T01:24:13;41.63;;;17.23;;
55210;SDS011;41082;52.822;6.666;2024-02-15T01:26:39;46.47;;;18.88;;
55210;SDS011;41082;52.822;6.666;2024-02-15T01:29:05;36.05;;;18.13;;
55210;SDS011;41082;52.822;6.666;2024-02-15T01:31:31;41.35;;;18.83;;
55210;SDS011;41082;52.822;6.666;2024-02-15T01:33:56;41.67;;;17.98;;
55210;SDS011;41082;52.822;6.666;2024-02-15T01:36:22;43.60;;;18.80;;
55210;SDS011;41082;52.822;6.666;2024-02-15T01:38:48;42.58;;;18.98;;
55210;SDS011;41082;52.822;6.666;2024-02-15T01:41:13;40.22;;;18.50;;
55210;SDS011;41082;52.822;6.666;2024-02-15T01:43:43;43.50;;;19.33;;
55210;SDS011;41082;52.822;6.666;2024-02-15T01:46:12;36.45;;;17.85;;
55210;SDS011;41082;52.822;6.666;2024-02-15T01:48:39;45.42;;;19.27;;
55210;SDS011;41082;52.822;6.666;2024-02-15T01:51:06;45.03;;;19.00;;
55210;SDS011;41082;52.822;6.666;2024-02-15T01:53:33;39.00;;;18.85;;
55210;SDS011;41082;52.822;6.666;2024-02-15T01:55:59;40.38;;;19.05;;
55210;SDS011;41082;52.822;6.666;2024-02-15T01:58:25;40.97;;;16.80;;
55210;SDS011;41082;52.822;6.666;2024-02-15T02:00:52;40.15;;;17.65;;
55210;SDS011;41082;52.822;6.666;2024-02-15T02:03:18;39.00;;;17.10;;
55210;SDS011;41082;52.822;6.666;2024-02-15T02:05:46;40.40;;;16.45;;
55210;SDS011;41082;52.822;6.666;2024-02-15T02:08:12;43.53;;;17.58;;
55210;SDS011;41082;52.822;6.666;2024-02-15T02:10:38;43.78;;;16.85;;
55210;SDS011;41082;52.822;6.666;2024-02-15T02:13:04;40.40;;;16.63;;
55210;SDS011;41082;52.822;6.666;2024-02-15T02:15:33;33.78;;;14.88;;
55210;SDS011;41082;52.822;6.666;2024-02-15T02:18:03;36.20;;;16.13;;
55210;SDS011;41082;52.822;6.666;2024-02-15T02:20:34;35.83;;;15.40;;
55210;SDS011;41082;52.822;6.666;2024-02-15T02:23:07;33.08;;;14.60;;
55210;SDS011;41082;52.822;6.666;2024-02-15T02:25:37;31.73;;;14.70;;
55210;SDS011;41082;52.822;6.666;2024-02-15T02:28:03;30.38;;;14.65;;
55210;SDS011;41082;52.822;6.666;2024-02-15T02:30:30;31.50;;;13.48;;
55210;SDS011;41082;52.822;6.666;2024-02-15T02:32:56;33.97;;;13.88;;
55210;SDS011;41082;52.822;6.666;2024-02-15T02:35:22;24.23;;;12.55;;
55210;SDS011;41082;52.822;6.666;2024-02-15T02:37:48;33.25;;;13.57;;
55210;SDS011;41082;52.822;6.666;2024-02-15T02:40:14;25.23;;;12.32;;
55210;SDS011;41082;52.822;6.666;2024-02-15T02:42:52;29.48;;;12.63;;
55210;SDS011;41082;52.822;6.666;2024-02-15T02:45:21;30.23;;;12.27;;
55210;SDS011;41082;52.822;6.666;2024-02-15T02:47:50;28.00;;;11.90;;
55210;SDS011;41082;52.822;6.666;2024-02-15T02:50:16;26.35;;;11.55;;
55210;SDS011;41082;52.822;6.666;2024-02-15T02:52:42;29.35;;;11.27;;
55210;SDS011;41082;52.822;6.666;2024-02-15T02:55:09;28.15;;;12.20;;
55210;SDS011;41082;52.822;6.666;2024-02-15T02:57:36;27.80;;;11.52;;
55210;SDS011;41082;52.822;6.666;2024-02-15T03:00:06;27.10;;;11.90;;
55210;SDS011;41082;52.822;6.666;2024-02-15T03:02:36;29.13;;;13.85;;
55210;SDS011;41082;52.822;6.666;2024-02-15T03:05:05;26.30;;;14.10;;
55210;SDS011;41082;52.822;6.666;2024-02-15T03:07:33;32.28;;;15.60;;
55210;SDS011;41082;52.822;6.666;2024-02-15T03:10:00;28.17;;;14.60;;
55210;SDS011;41082;52.822;6.666;2024-02-15T03:12:30;34.47;;;15.88;;
55210;SDS011;41082;52.822;6.666;2024-02-15T03:14:56;33.22;;;16.52;;
55210;SDS011;41082;52.822;6.666;2024-02-15T03:17:24;29.55;;;15.73;;
55210;SDS011;41082;52.822;6.666;2024-02-15T03:19:51;36.83;;;16.02;;
55210;SDS011;41082;52.822;6.666;2024-02-15T03:22:17;28.05;;;15.68;;
55210;SDS011;41082;52.822;6.666;2024-02-15T03:24:42;26.63;;;15.00;;
55210;SDS011;41082;52.822;6.666;2024-02-15T03:27:08;28.80;;;16.90;;
55210;SDS011;41082;52.822;6.666;2024-02-15T03:29:37;29.70;;;16.70;;
55210;SDS011;41082;52.822;6.666;2024-02-15T03:32:03;32.35;;;16.15;;
55210;SDS011;41082;52.822;6.666;2024-02-15T03:34:30;35.58;;;16.42;;
55210;SDS011;41082;52.822;6.666;2024-02-15T03:36:56;31.08;;;16.40;;
55210;SDS011;41082;52.822;6.666;2024-02-15T03:39:22;31.65;;;16.92;;
55210;SDS011;41082;52.822;6.666;2024-02-15T03:41:48;33.17;;;17.95;;
55210;SDS011;41082;52.822;6.666;2024-02-15T03:44:15;30.55;;;18.45;;
55210;SDS011;41082;52.822;6.666;2024-02-15T03:46:43;28.10;;;16.75;;
55210;SDS011;41082;52.822;6.666;2024-02-15T03:49:15;29.38;;;17.40;;
55210;SDS011;41082;52.822;6.666;2024-02-15T03:51:44;34.28;;;17.48;;
55210;SDS011;41082;52.822;6.666;2024-02-15T03:54:10;31.48;;;18.00;;
55210;SDS011;41082;52.822;6.666;2024-02-15T03:56:36;33.75;;;19.00;;
55210;SDS011;41082;52.822;6.666;2024-02-15T03:59:02;37.28;;;18.38;;
55210;SDS011;41082;52.822;6.666;2024-02-15T04:01:29;31.40;;;18.70;;
55210;SDS011;41082;52.822;6.666;2024-02-15T04:03:58;34.90;;;19.00;;
55210;SDS011;41082;52.822;6.666;2024-02-15T04:06:24;39.78;;;20.27;;
55210;SDS011;41082;52.822;6.666;2024-02-15T04:08:52;34.58;;;19.67;;
55210;SDS011;41082;52.822;6.666;2024-02-15T04:11:18;37.20;;;21.80;;
55210;SDS011;41082;52.822;6.666;2024-02-15T04:13:44;36.13;;;21.13;;
55210;SDS011;41082;52.822;6.666;2024-02-15T04:16:10;36.15;;;20.90;;
55210;SDS011;41082;52.822;6.666;2024-02-15T04:18:36;39.90;;;21.85;;
55210;SDS011;41082;52.822;6.666;2024-02-15T04:21:03;35.35;;;21.23;;
55210;SDS011;41082;52.822;6.666;2024-02-15T04:23:31;41.28;;;23.30;;
55210;SDS011;41082;52.822;6.666;2024-02-15T04:25:56;37.88;;;21.23;;
55210;SDS011;41082;52.822;6.666;2024-02-15T04:28:23;37.60;;;21.67;;
55210;SDS011;41082;52.822;6.666;2024-02-15T04:30:50;36.50;;;21.45;;
55210;SDS011;41082;52.822;6.666;2024-02-15T04:33:16;32.40;;;21.23;;
55210;SDS011;41082;52.822;6.666;2024-02-15T04:35:42;33.35;;;22.02;;
55210;SDS011;41082;52.822;6.666;2024-02-15T04:38:08;38.20;;;22.52;;
55210;SDS011;41082;52.822;6.666;2024-02-15T04:40:34;36.45;;;22.67;;
55210;SDS011;41082;52.822;6.666;2024-02-15T04:43:00;34.20;;;22.90;;
55210;SDS011;41082;52.822;6.666;2024-02-15T04:45:29;37.72;;;23.33;;
55210;SDS011;41082;52.822;6.666;2024-02-15T04:47:56;40.40;;;23.90;;
55210;SDS011;41082;52.822;6.666;2024-02-15T04:50:26;40.90;;;24.30;;
55210;SDS011;41082;52.822;6.666;2024-02-15T04:52:52;38.97;;;24.38;;
55210;SDS011;41082;52.822;6.666;2024-02-15T04:55:18;38.17;;;24.02;;
55210;SDS011;41082;52.822;6.666;2024-02-15T04:57:44;41.45;;;24.85;;
55210;SDS011;41082;52.822;6.666;2024-02-15T05:00:09;41.58;;;24.73;;
55210;SDS011;41082;52.822;6.666;2024-02-15T05:02:38;37.53;;;23.77;;
55210;SDS011;41082;52.822;6.666;2024-02-15T05:05:08;40.35;;;25.35;;
55210;SDS011;41082;52.822;6.666;2024-02-15T05:07:34;35.22;;;24.30;;
55210;SDS011;41082;52.822;6.666;2024-02-15T05:10:04;38.35;;;24.38;;
55210;SDS011;41082;52.822;6.666;2024-02-15T05:12:31;35.65;;;24.23;;
55210;SDS011;41082;52.822;6.666;2024-02-15T05:14:58;36.38;;;23.85;;
55210;SDS011;41082;52.822;6.666;2024-02-15T05:17:27;39.13;;;24.40;;
55210;SDS011;41082;52.822;6.666;2024-02-15T05:19:56;39.10;;;25.52;;
55210;SDS011;41082;52.822;6.666;2024-02-15T05:22:24;38.53;;;25.17;;
55210;SDS011;41082;52.822;6.666;2024-02-15T05:24:53;36.22;;;24.15;;
55210;SDS011;41082;52.822;6.666;2024-02-15T05:27:20;35.35;;;23.77;;
55210;SDS011;41082;52.822;6.666;2024-02-15T05:29:45;36.38;;;23.67;;
55210;SDS011;41082;52.822;6.666;2024-02-15T05:32:11;39.33;;;23.40;;
55210;SDS011;41082;52.822;6.666;2024-02-15T05:34:38;32.72;;;24.00;;
55210;SDS011;41082;52.822;6.666;2024-02-15T05:37:05;35.25;;;23.67;;
55210;SDS011;41082;52.822;6.666;2024-02-15T05:39:32;31.63;;;24.27;;
55210;SDS011;41082;52.822;6.666;2024-02-15T05:41:57;34.65;;;24.05;;
55210;SDS011;41082;52.822;6.666;2024-02-15T05:44:26;39.30;;;24.50;;
55210;SDS011;41082;52.822;6.666;2024-02-15T05:46:51;33.83;;;23.23;;
55210;SDS011;41082;52.822;6.666;2024-02-15T05:49:17;36.70;;;22.33;;
55210;SDS011;41082;52.822;6.666;2024-02-15T05:51:43;36.85;;;23.27;;
55210;SDS011;41082;52.822;6.666;2024-02-15T05:54:09;31.95;;;22.30;;
55210;SDS011;41082;52.822;6.666;2024-02-15T05:56:34;30.70;;;22.02;;
55210;SDS011;41082;52.822;6.666;2024-02-15T05:59:00;32.20;;;21.60;;
55210;SDS011;41082;52.822;6.666;2024-02-15T06:01:27;31.20;;;21.42;;
55210;SDS011;41082;52.822;6.666;2024-02-15T06:03:54;30.80;;;21.13;;
55210;SDS011;41082;52.822;6.666;2024-02-15T06:06:20;36.55;;;21.10;;
55210;SDS011;41082;52.822;6.666;2024-02-15T06:08:46;31.05;;;20.60;;
55210;SDS011;41082;52.822;6.666;2024-02-15T06:11:13;31.33;;;20.15;;
55210;SDS011;41082;52.822;6.666;2024-02-15T06:13:43;28.77;;;19.48;;
55210;SDS011;41082;52.822;6.666;2024-02-15T06:16:11;31.08;;;19.80;;
55210;SDS011;41082;52.822;6.666;2024-02-15T06:18:36;37.25;;;19.33;;
55210;SDS011;41082;52.822;6.666;2024-02-15T06:21:02;28.48;;;19.05;;
55210;SDS011;41082;52.822;6.666;2024-02-15T06:23:28;36.22;;;20.02;;
55210;SDS011;41082;52.822;6.666;2024-02-15T06:25:55;29.52;;;19.23;;
55210;SDS011;41082;52.822;6.666;2024-02-15T06:28:23;33.53;;;20.38;;
55210;SDS011;41082;52.822;6.666;2024-02-15T06:31:07;38.55;;;19.85;;
55210;SDS011;41082;52.822;6.666;2024-02-15T06:33:52;30.38;;;18.98;;
55210;SDS011;41082;52.822;6.666;2024-02-15T06:36:55;32.20;;;17.52;;
55210;SDS011;41082;52.822;6.666;2024-02-15T06:39:40;33.88;;;17.98;;
55210;SDS011;41082;52.822;6.666;2024-02-15T06:42:09;29.90;;;18.60;;
55210;SDS011;41082;52.822;6.666;2024-02-15T06:44:41;29.95;;;17.33;;
55210;SDS011;41082;52.822;6.666;2024-02-15T06:47:07;28.15;;;17.45;;
55210;SDS011;41082;52.822;6.666;2024-02-15T06:49:41;30.58;;;17.83;;
55210;SDS011;41082;52.822;6.666;2024-02-15T06:52:09;32.13;;;17.13;;
55210;SDS011;41082;52.822;6.666;2024-02-15T06:54:36;25.65;;;16.58;;
55210;SDS011;41082;52.822;6.666;2024-02-15T06:57:05;32.45;;;17.83;;
55210;SDS011;41082;52.822;6.666;2024-02-15T06:59:32;25.48;;;16.42;;
55210;SDS011;41082;52.822;6.666;2024-02-15T07:01:58;27.17;;;16.83;;
55210;SDS011;41082;52.822;6.666;2024-02-15T07:04:24;33.30;;;17.20;;
55210;SDS011;41082;52.822;6.666;2024-02-15T07:06:51;27.00;;;17.38;;
55210;SDS011;41082;52.822;6.666;2024-02-15T07:09:19;25.35;;;15.68;;
55210;SDS011;41082;52.822;6.666;2024-02-15T07:11:45;26.33;;;15.45;;
55210;SDS011;41082;52.822;6.666;2024-02-15T07:14:11;30.40;;;16.98;;
55210;SDS011;41082;52.822;6.666;2024-02-15T07:16:38;28.27;;;16.20;;
55210;SDS011;41082;52.822;6.666;2024-02-15T07:19:03;25.35;;;15.55;;
55210;SDS011;41082;52.822;6.666;2024-02-15T07:21:29;25.42;;;15.00;;
55210;SDS011;41082;52.822;6.666;2024-02-15T07:23:56;28.77;;;15.73;;
55210;SDS011;41082;52.822;6.666;2024-02-15T07:26:23;26.52;;;14.57;;
55210;SDS011;41082;52.822;6.666;2024-02-15T07:28:53;24.90;;;15.55;;
55210;SDS011;41082;52.822;6.666;2024-02-15T07:31:20;26.25;;;15.27;;
55210;SDS011;41082;52.822;6.666;2024-02-15T07:33:50;26.80;;;14.88;;
55210;SDS011;41082;52.822;6.666;2024-02-15T07:36:19;22.77;;;13.45;;
55210;SDS011;41082;52.822;6.666;2024-02-15T07:38:47;25.38;;;13.80;;
55210;SDS011;41082;52.822;6.666;2024-02-15T07:41:13;21.83;;;13.93;;
55210;SDS011;41082;52.822;6.666;2024-02-15T07:43:43;21.63;;;13.00;;
55210;SDS011;41082;52.822;6.666;2024-02-15T07:46:13;23.48;;;13.38;;
55210;SDS011;41082;52.822;6.666;2024-02-15T07:48:41;23.50;;;13.55;;
55210;SDS011;41082;52.822;6.666;2024-02-15T07:51:10;22.58;;;13.38;;
55210;SDS011;41082;52.822;6.666;2024-02-15T07:53:46;28.42;;;12.68;;
55210;SDS011;41082;52.822;6.666;2024-02-15T07:56:13;21.60;;;11.88;;
55210;SDS011;41082;52.822;6.666;2024-02-15T07:58:40;18.58;;;11.80;;
55210;SDS011;41082;52.822;6.666;2024-02-15T08:01:07;21.95;;;12.02;;
55210;SDS011;41082;52.822;6.666;2024-02-15T08:03:34;18.40;;;11.48;;
55210;SDS011;41082;52.822;6.666;2024-02-15T08:06:01;22.15;;;11.80;;
55210;SDS011;41082;52.822;6.666;2024-02-15T08:08:31;19.48;;;12.07;;
55210;SDS011;41082;52.822;6.666;2024-02-15T08:10:59;17.42;;;11.13;;
55210;SDS011;41082;52.822;6.666;2024-02-15T08:13:26;18.85;;;12.38;;
55210;SDS011;41082;52.822;6.666;2024-02-15T08:15:54;21.10;;;12.38;;
55210;SDS011;41082;52.822;6.666;2024-02-15T08:18:20;18.77;;;11.25;;
55210;SDS011;41082;52.822;6.666;2024-02-15T08:20:46;20.02;;;11.48;;
55210;SDS011;41082;52.822;6.666;2024-02-15T08:23:12;17.77;;;11.65;;
55210;SDS011;41082;52.822;6.666;2024-02-15T08:25:41;21.65;;;11.68;;
55210;SDS011;41082;52.822;6.666;2024-02-15T08:28:06;17.00;;;12.13;;
55210;SDS011;41082;52.822;6.666;2024-02-15T08:30:32;16.48;;;11.38;;
55210;SDS011;41082;52.822;6.666;2024-02-15T08:32:58;16.42;;;11.70;;
55210;SDS011;41082;52.822;6.666;2024-02-15T08:35:24;16.10;;;11.13;;
55210;SDS011;41082;52.822;6.666;2024-02-15T08:37:50;15.82;;;12.07;;
55210;SDS011;41082;52.822;6.666;2024-02-15T08:40:17;14.95;;;10.93;;
55210;SDS011;41082;52.822;6.666;2024-02-15T08:42:44;16.70;;;10.88;;
55210;SDS011;41082;52.822;6.666;2024-02-15T08:45:11;15.52;;;10.52;;
55210;SDS011;41082;52.822;6.666;2024-02-15T08:47:37;15.98;;;11.25;;
55210;SDS011;41082;52.822;6.666;2024-02-15T08:50:04;16.10;;;10.63;;
55210;SDS011;41082;52.822;6.666;2024-02-15T08:52:31;15.82;;;11.55;;
55210;SDS011;41082;52.822;6.666;2024-02-15T08:54:57;14.27;;;11.30;;
55210;SDS011;41082;52.822;6.666;2024-02-15T08:57:24;17.90;;;11.20;;
55210;SDS011;41082;52.822;6.666;2024-02-15T08:59:51;17.88;;;11.25;;
55210;SDS011;41082;52.822;6.666;2024-02-15T09:02:17;14.15;;;10.85;;
55210;SDS011;41082;52.822;6.666;2024-02-15T09:04:43;14.90;;;11.00;;
55210;SDS011;41082;52.822;6.666;2024-02-15T09:07:09;19.17;;;11.77;;
55210;SDS011;41082;52.822;6.666;2024-02-15T09:09:35;12.32;;;10.10;;
55210;SDS011;41082;52.822;6.666;2024-02-15T09:12:02;14.13;;;9.85;;
55210;SDS011;41082;52.822;6.666;2024-02-15T09:14:34;14.20;;;9.60;;
55210;SDS011;41082;52.822;6.666;2024-02-15T09:17:02;15.55;;;9.93;;
55210;SDS011;41082;52.822;6.666;2024-02-15T09:19:36;13.05;;;9.73;;
55210;SDS011;41082;52.822;6.666;2024-02-15T09:22:02;16.30;;;10.13;;
55210;SDS011;41082;52.822;6.666;2024-02-15T09:24:31;13.93;;;10.40;;
55210;SDS011;41082;52.822;6.666;2024-02-15T09:27:03;13.93;;;9.63;;
55210;SDS011;41082;52.822;6.666;2024-02-15T09:29:29;11.85;;;9.07;;
55210;SDS011;41082;52.822;6.666;2024-02-15T09:32:04;13.75;;;10.10;;
55210;SDS011;41082;52.822;6.666;2024-02-15T09:34:29;11.52;;;8.85;;
55210;SDS011;41082;52.822;6.666;2024-02-15T09:36:55;13.93;;;9.60;;
55210;SDS011;41082;52.822;6.666;2024-02-15T09:39:21;12.57;;;9.20;;
55210;SDS011;41082;52.822;6.666;2024-02-15T09:41:48;11.43;;;8.95;;
55210;SDS011;41082;52.822;6.666;2024-02-15T09:44:20;13.43;;;7.55;;
55210;SDS011;41082;52.822;6.666;2024-02-15T09:46:46;12.50;;;7.97;;
55210;SDS011;41082;52.822;6.666;2024-02-15T09:49:17;11.48;;;7.38;;
55210;SDS011;41082;52.822;6.666;2024-02-15T09:51:43;9.50;;;7.20;;
55210;SDS011;41082;52.822;6.666;2024-02-15T09:54:10;9.65;;;7.18;;
55210;SDS011;41082;52.822;6.666;2024-02-15T09:56:38;10.10;;;7.38;;
55210;SDS011;41082;52.822;6.666;2024-02-15T09:59:06;7.60;;;6.72;;
55210;SDS011;41082;52.822;6.666;2024-02-15T10:01:32;8.13;;;6.78;;
55210;SDS011;41082;52.822;6.666;2024-02-15T10:04:00;9.00;;;7.00;;
55210;SDS011;41082;52.822;6.666;2024-02-15T10:06:31;10.18;;;6.75;;
55210;SDS011;41082;52.822;6.666;2024-02-15T10:09:22;7.18;;;6.47;;
55210;SDS011;41082;52.822;6.666;2024-02-15T10:11:53;10.48;;;6.03;;
55210;SDS011;41082;52.822;6.666;2024-02-15T10:14:25;5.90;;;5.10;;
55210;SDS011;41082;52.822;6.666;2024-02-15T10:16:55;8.80;;;5.72;;
55210;SDS011;41082;52.822;6.666;2024-02-15T10:19:22;8.90;;;5.65;;
55210;SDS011;41082;52.822;6.666;2024-02-15T10:21:53;6.30;;;5.45;;
55210;SDS011;41082;52.822;6.666;2024-02-15T10:24:22;5.43;;;4.93;;
55210;SDS011;41082;52.822;6.666;2024-02-15T10:26:59;6.03;;;4.90;;
55210;SDS011;41082;52.822;6.666;2024-02-15T10:29:29;5.55;;;4.63;;
55210;SDS011;41082;52.822;6.666;2024-02-15T10:31:56;5.78;;;4.82;;
55210;SDS011;41082;52.822;6.666;2024-02-15T10:34:26;4.45;;;4.07;;
55210;SDS011;41082;52.822;6.666;2024-02-15T10:37:10;5.28;;;4.47;;
55210;SDS011;41082;52.822;6.666;2024-02-15T10:39:37;5.72;;;4.68;;
55210;SDS011;41082;52.822;6.666;2024-02-15T10:42:02;6.88;;;4.60;;
55210;SDS011;41082;52.822;6.666;2024-02-15T10:44:31;5.40;;;4.90;;
55210;SDS011;41082;52.822;6.666;2024-02-15T10:46:59;6.70;;;4.90;;
55210;SDS011;41082;52.822;6.666;2024-02-15T10:49:31;5.65;;;4.82;;
55210;SDS011;41082;52.822;6.666;2024-02-15T10:52:00;4.60;;;4.20;;
55210;SDS011;41082;52.822;6.666;2024-02-15T10:54:51;5.15;;;4.32;;
55210;SDS011;41082;52.822;6.666;2024-02-15T10:57:21;5.97;;;4.40;;
55210;SDS011;41082;52.822;6.666;2024-02-15T10:59:55;4.55;;;4.13;;
55210;SDS011;41082;52.822;6.666;2024-02-15T11:04:52;6.15;;;5.03;;
55210;SDS011;41082;52.822;6.666;2024-02-15T11:07:25;4.90;;;4.25;;
55210;SDS011;41082;52.822;6.666;2024-02-15T11:09:54;3.97;;;3.65;;
55210;SDS011;41082;52.822;6.666;2024-02-15T11:12:23;3.67;;;3.28;;
55210;SDS011;41082;52.822;6.666;2024-02-15T11:14:53;3.70;;;3.10;;
55210;SDS011;41082;52.822;6.666;2024-02-15T11:22:59;3.70;;;3.30;;
55210;SDS011;41082;52.822;6.666;2024-02-15T11:25:32;3.28;;;2.80;;
55210;SDS011;41082;52.822;6.666;2024-02-15T11:30:49;4.88;;;2.70;;
55210;SDS011;41082;52.822;6.666;2024-02-15T11:33:33;3.38;;;2.47;;
55210;SDS011;41082;52.822;6.666;2024-02-15T11:36:10;4.22;;;2.72;;
55210;SDS011;41082;52.822;6.666;2024-02-15T11:38:37;2.63;;;2.40;;
55210;SDS011;41082;52.822;6.666;2024-02-15T11:41:08;2.95;;;2.63;;
55210;SDS011;41082;52.822;6.666;2024-02-15T11:46:23;3.25;;;2.72;;
55210;SDS011;41082;52.822;6.666;2024-02-15T11:48:51;4.80;;;1.92;;
55210;SDS011;41082;52.822;6.666;2024-02-15T11:51:28;6.18;;;2.33;;
55210;SDS011;41082;52.822;6.666;2024-02-15T11:54:04;2.22;;;2.03;;
55210;SDS011;41082;52.822;6.666;2024-02-15T11:56:48;3.15;;;1.90;;
55210;SDS011;41082;52.822;6.666;2024-02-15T11:59:19;2.50;;;2.28;;
55210;SDS011;41082;52.822;6.666;2024-02-15T12:01:56;2.30;;;2.08;;
55210;SDS011;41082;52.822;6.666;2024-02-15T12:04:42;2.50;;;2.10;;
55210;SDS011;41082;52.822;6.666;2024-02-15T12:07:31;2.75;;;2.05;;
55210;SDS011;41082;52.822;6.666;2024-02-15T12:10:19;3.75;;;2.40;;
55210;SDS011;41082;52.822;6.666;2024-02-15T12:13:04;4.32;;;2.10;;
55210;SDS011;41082;52.822;6.666;2024-02-15T12:15:56;3.08;;;1.92;;
55210;SDS011;41082;52.822;6.666;2024-02-15T12:18:41;2.58;;;2.10;;
55210;SDS011;41082;52.822;6.666;2024-02-15T12:21:07;1.90;;;1.70;;
55210;SDS011;41082;52.822;6.666;2024-02-15T12:23:37;2.75;;;1.98;;
55210;SDS011;41082;52.822;6.666;2024-02-15T12:26:03;3.17;;;2.20;;
55210;SDS011;41082;52.822;6.666;2024-02-15T12:28:30;5.47;;;2.35;;
55210;SDS011;41082;52.822;6.666;2024-02-15T12:30:56;3.38;;;2.78;;
55210;SDS011;41082;52.822;6.666;2024-02-15T12:33:25;5.05;;;2.65;;
55210;SDS011;41082;52.822;6.666;2024-02-15T12:35:52;6.10;;;2.75;;
55210;SDS011;41082;52.822;6.666;2024-02-15T12:38:32;3.38;;;2.78;;
55210;SDS011;41082;52.822;6.666;2024-02-15T12:40:59;4.63;;;2.80;;
55210;SDS011;41082;52.822;6.666;2024-02-15T12:43:27;3.85;;;2.75;;
55210;SDS011;41082;52.822;6.666;2024-02-15T12:45:53;4.18;;;3.03;;
55210;SDS011;41082;52.822;6.666;2024-02-15T12:48:22;8.35;;;2.78;;
55210;SDS011;41082;52.822;6.666;2024-02-15T12:50:47;5.82;;;2.67;;
55210;SDS011;41082;52.822;6.666;2024-02-15T12:53:15;5.07;;;3.28;;
55210;SDS011;41082;52.822;6.666;2024-02-15T12:55:51;5.22;;;2.70;;
55210;SDS011;41082;52.822;6.666;2024-02-15T12:58:21;5.45;;;3.50;;
55210;SDS011;41082;52.822;6.666;2024-02-15T13:00:49;6.25;;;3.15;;
55210;SDS011;41082;52.822;6.666;2024-02-15T13:03:15;6.63;;;3.90;;
55210;SDS011;41082;52.822;6.666;2024-02-15T13:05:43;6.43;;;3.80;;
55210;SDS011;41082;52.822;6.666;2024-02-15T13:08:08;8.93;;;3.90;;
55210;SDS011;41082;52.822;6.666;2024-02-15T13:10:42;8.02;;;4.90;;
55210;SDS011;41082;52.822;6.666;2024-02-15T13:13:08;11.05;;;4.93;;
55210;SDS011;41082;52.822;6.666;2024-02-15T13:15:39;8.93;;;5.15;;
55210;SDS011;41082;52.822;6.666;2024-02-15T13:18:05;8.98;;;5.82;;
55210;SDS011;41082;52.822;6.666;2024-02-15T13:20:34;11.18;;;5.20;;
55210;SDS011;41082;52.822;6.666;2024-02-15T13:23:06;7.72;;;5.32;;
55210;SDS011;41082;52.822;6.666;2024-02-15T13:25:47;10.35;;;5.85;;
55210;SDS011;41082;52.822;6.666;2024-02-15T13:28:14;16.42;;;5.75;;
55210;SDS011;41082;52.822;6.666;2024-02-15T13:30:40;6.35;;;5.22;;
55210;SDS011;41082;52.822;6.666;2024-02-15T13:33:07;11.93;;;6.03;;
55210;SDS011;41082;52.822;6.666;2024-02-15T13:35:33;9.57;;;5.32;;
55210;SDS011;41082;52.822;6.666;2024-02-15T13:37:59;12.55;;;7.05;;
55210;SDS011;41082;52.822;6.666;2024-02-15T13:40:25;11.27;;;6.22;;
55210;SDS011;41082;52.822;6.666;2024-02-15T13:42:56;10.68;;;5.57;;
55210;SDS011;41082;52.822;6.666;2024-02-15T13:47:57;12.65;;;6.13;;
55210;SDS011;41082;52.822;6.666;2024-02-15T13:50:24;8.32;;;5.80;;
55210;SDS011;41082;52.822;6.666;2024-02-15T13:52:49;9.65;;;6.03;;
55210;SDS011;41082;52.822;6.666;2024-02-15T13:55:16;9.80;;;5.72;;
55210;SDS011;41082;52.822;6.666;2024-02-15T13:57:43;9.50;;;5.75;;
55210;SDS011;41082;52.822;6.666;2024-02-15T14:00:12;12.18;;;5.72;;
55210;SDS011;41082;52.822;6.666;2024-02-15T14:02:46;9.75;;;5.68;;
55210;SDS011;41082;52.822;6.666;2024-02-15T14:05:19;12.05;;;6.38;;
55210;SDS011;41082;52.822;6.666;2024-02-15T14:07:56;14.60;;;7.10;;
55210;SDS011;41082;52.822;6.666;2024-02-15T14:10:24;11.10;;;6.43;;
55210;SDS011;41082;52.822;6.666;2024-02-15T14:12:52;7.40;;;6.15;;
55210;SDS011;41082;52.822;6.666;2024-02-15T14:15:20;13.65;;;7.15;;
55210;SDS011;41082;52.822;6.666;2024-02-15T14:17:46;10.77;;;6.60;;
55210;SDS011;41082;52.822;6.666;2024-02-15T14:20:13;14.57;;;6.82;;
55210;SDS011;41082;52.822;6.666;2024-02-15T14:22:40;8.10;;;6.38;;
55210;SDS011;41082;52.822;6.666;2024-02-15T14:25:06;13.88;;;7.45;;
55210;SDS011;41082;52.822;6.666;2024-02-15T14:27:32;14.23;;;7.60;;
55210;SDS011;41082;52.822;6.666;2024-02-15T14:29:58;10.20;;;7.38;;
55210;SDS011;41082;52.822;6.666;2024-02-15T14:32:43;12.15;;;7.15;;
55210;SDS011;41082;52.822;6.666;2024-02-15T14:35:35;11.85;;;6.63;;
55210;SDS011;41082;52.822;6.666;2024-02-15T14:38:03;14.07;;;6.32;;
55210;SDS011;41082;52.822;6.666;2024-02-15T14:40:34;13.15;;;6.65;;
55210;SDS011;41082;52.822;6.666;2024-02-15T14:43:02;14.10;;;6.88;;
55210;SDS011;41082;52.822;6.666;2024-02-15T14:45:30;12.98;;;6.85;;
55210;SDS011;41082;52.822;6.666;2024-02-15T14:47:57;10.63;;;6.35;;
55210;SDS011;41082;52.822;6.666;2024-02-15T14:50:24;15.02;;;7.25;;
55210;SDS011;41082;52.822;6.666;2024-02-15T14:52:50;14.45;;;6.78;;